Time;durP1;ratioP1;P1;durP2;ratioP2;P2;SDS_P1;SDS_P2;PMS_P1;PMS_P2;Temp;Humidity;BMP_temperature;BMP_pressure;BME280_temperature;BME280_humidity;BME280_pressure;Samples;Min_cycle;Max_cycle;Signal;HPM_P1;HPM_P2
2021/11/10 00:01:37;;;;;;;;;57.50;48.00;;;;;10.55;58.28;102106.53;5054170;28;45477;-74
2021/11/10 00:04:03;;;;;;;;;64.00;50.00;;;;;10.51;58.83;102094.13;5054808;28;45598;-75
2021/11/10 00:06:28;;;;;;;;;61.00;48.50;;;;;10.49;58.67;102085.25;5052522;28;45245;-75
2021/11/10 00:08:54;;;;;;;;;57.25;45.50;;;;;10.48;58.76;102083.47;5060016;28;45224;-75
2021/11/10 00:11:19;;;;;;;;;60.50;49.50;;;;;10.42;58.46;102078.19;5047545;28;45246;-75
2021/11/10 00:13:45;;;;;;;;;58.25;48.25;;;;;10.43;58.67;102079.09;5056639;28;45429;-75
2021/11/10 00:16:10;;;;;;;;;62.50;51.00;;;;;10.37;58.28;102078.25;5059823;28;45343;-75
2021/11/10 00:18:36;;;;;;;;;65.25;52.00;;;;;10.33;58.63;102078.31;5060050;28;45233;-75
2021/11/10 00:21:02;;;;;;;;;63.25;50.25;;;;;10.33;58.37;102071.16;5060315;28;45288;-75
2021/11/10 00:23:27;;;;;;;;;64.25;50.75;;;;;10.33;58.41;102079.19;5060276;28;45149;-74
2021/11/10 00:25:52;;;;;;;;;65.00;51.00;;;;;10.32;58.91;102066.75;5059881;28;45430;-74
2021/11/10 00:28:18;;;;;;;;;67.25;53.25;;;;;10.32;58.72;102058.75;5059797;28;45358;-75
2021/11/10 00:30:43;;;;;;;;;60.25;48.00;;;;;10.31;59.00;102046.25;5060270;28;45856;-74
2021/11/10 00:33:09;;;;;;;;;61.00;49.50;;;;;10.28;58.87;102042.72;5059965;28;45271;-75
2021/11/10 00:35:34;;;;;;;;;62.50;49.00;;;;;10.27;58.73;102052.50;5059651;28;45335;-75
2021/11/10 00:37:59;;;;;;;;;65.25;52.75;;;;;10.22;59.07;102058.78;5059351;28;45314;-75
2021/11/10 00:40:25;;;;;;;;;62.50;49.50;;;;;10.19;58.91;102065.06;5059664;28;45982;-74
2021/11/10 00:42:50;;;;;;;;;59.75;48.00;;;;;10.19;59.02;102060.59;5059659;28;45483;-75
2021/11/10 00:45:16;;;;;;;;;65.75;51.75;;;;;10.20;59.07;102053.47;5058691;28;46318;-74
2021/11/10 00:47:42;;;;;;;;;62.50;49.75;;;;;10.22;58.51;102056.13;5059329;28;45337;-75
2021/11/10 00:50:08;;;;;;;;;63.00;50.75;;;;;10.16;58.71;102049.09;5059839;28;45556;-75
2021/11/10 00:52:33;;;;;;;;;62.00;51.00;;;;;10.16;58.61;102041.06;5059650;28;45505;-79
2021/11/10 00:54:58;;;;;;;;;62.50;50.00;;;;;10.17;58.79;102035.72;5059830;28;45246;-75
2021/11/10 00:57:24;;;;;;;;;61.00;48.25;;;;;10.15;59.08;102040.16;5059086;28;45279;-75
2021/11/10 00:59:49;;;;;;;;;56.25;46.50;;;;;10.10;59.02;102035.78;5059951;28;45370;-75
2021/11/10 01:02:15;;;;;;;;;58.50;47.00;;;;;10.11;59.04;102026.91;5057897;28;45362;-75
2021/11/10 01:04:40;;;;;;;;;56.25;47.25;;;;;10.09;59.25;102021.56;5059713;28;46353;-75
2021/11/10 01:07:06;;;;;;;;;56.50;47.25;;;;;10.00;58.61;102000.31;5058731;28;45158;-75
2021/11/10 01:09:39;;;;;;;;;59.25;48.50;;;;;9.99;59.10;101998.56;5059631;28;45282;-75
2021/11/10 01:12:06;;;;;;;;;59.75;48.50;;;;;9.99;59.34;102004.78;5045954;28;45214;-75
2021/11/10 01:14:31;;;;;;;;;57.25;46.75;;;;;9.97;58.89;102000.34;5059264;28;46079;-76
2021/11/10 01:16:57;;;;;;;;;57.25;46.75;;;;;9.94;59.11;102000.34;5058732;28;45325;-75
2021/11/10 01:19:23;;;;;;;;;55.25;44.25;;;;;9.95;59.00;102013.69;5059382;28;45386;-75
2021/11/10 01:21:49;;;;;;;;;54.50;45.00;;;;;9.97;59.13;102003.00;5059317;28;45342;-75
2021/11/10 01:24:14;;;;;;;;;61.00;49.25;;;;;9.94;59.25;102000.34;5059347;28;45402;-75
2021/11/10 01:26:40;;;;;;;;;57.75;46.75;;;;;9.93;58.88;102014.63;5058951;28;45402;-75
2021/11/10 01:29:06;;;;;;;;;56.25;45.75;;;;;9.95;59.29;102016.34;5059331;28;45394;-74
2021/11/10 01:31:31;;;;;;;;;58.75;48.00;;;;;9.93;58.90;102015.50;5059270;28;45246;-75
2021/11/10 01:33:57;;;;;;;;;59.50;48.25;;;;;9.94;59.36;102019.94;5059203;28;45917;-74
2021/11/10 01:36:23;;;;;;;;;55.00;43.75;;;;;9.91;58.96;102009.28;5058381;28;45302;-75
2021/11/10 01:38:48;;;;;;;;;61.00;47.00;;;;;9.88;59.28;102009.31;5056235;28;45519;-75
2021/11/10 01:41:14;;;;;;;;;58.75;44.50;;;;;9.85;58.91;102017.34;5058927;28;45473;-75
2021/11/10 01:43:39;;;;;;;;;54.00;43.75;;;;;9.80;59.13;102017.38;5049141;28;45283;-74
2021/11/10 01:46:04;;;;;;;;;54.50;43.50;;;;;9.83;59.02;102028.00;5055778;28;45267;-75
2021/11/10 01:48:30;;;;;;;;;51.00;43.00;;;;;9.81;58.98;102018.28;5059131;28;45224;-74
2021/11/10 01:50:55;;;;;;;;;54.75;44.25;;;;;9.81;58.99;102004.94;5059112;28;45398;-74
2021/11/10 01:53:21;;;;;;;;;53.75;43.25;;;;;9.81;59.06;102005.81;5057799;28;47106;-75
2021/11/10 01:55:47;;;;;;;;;47.75;40.75;;;;;9.75;59.39;102005.88;5059631;28;45322;-75
2021/11/10 01:58:13;;;;;;;;;53.25;44.75;;;;;9.78;59.10;102019.19;5061152;28;45362;-74
2021/11/10 02:00:41;;;;;;;;;53.25;43.75;;;;;9.78;59.50;102011.19;5062302;28;45666;-75
2021/11/10 02:03:07;;;;;;;;;54.75;45.00;;;;;9.77;59.24;102014.75;5062317;28;46406;-74
2021/11/10 02:05:33;;;;;;;;;53.00;45.25;;;;;9.76;58.91;102018.31;5062395;28;45217;-75
2021/11/10 02:07:59;;;;;;;;;53.25;43.25;;;;;9.73;59.51;102017.47;5062117;28;45626;-74
2021/11/10 02:10:25;;;;;;;;;53.75;44.00;;;;;9.76;58.94;102022.78;5057415;28;45402;-75
2021/11/10 02:12:53;;;;;;;;;48.50;40.75;;;;;9.70;59.07;102006.81;5050660;28;46329;-75
2021/11/10 02:15:19;;;;;;;;;52.75;43.75;;;;;9.71;59.20;102000.59;5058376;28;45406;-74
2021/11/10 02:17:50;;;;;;;;;46.50;39.50;;;;;9.69;59.28;101999.69;5061966;28;45310;-75
2021/11/10 02:20:16;;;;;;;;;50.75;41.75;;;;;9.70;58.98;101998.81;5062166;28;45551;-75
2021/11/10 02:22:42;;;;;;;;;54.25;42.50;;;;;9.68;59.50;101997.94;5061522;28;46720;-75
2021/11/10 02:25:11;;;;;;;;;52.75;42.25;;;;;9.67;59.06;102001.50;5049739;28;45730;-75
2021/11/10 02:27:37;;;;;;;;;51.00;41.75;;;;;9.63;59.22;102005.97;5062148;28;45436;-75
2021/11/10 02:30:09;;;;;;;;;47.50;41.00;;;;;9.59;59.29;101996.25;5061885;28;45538;-75
2021/11/10 02:32:35;;;;;;;;;51.25;41.50;;;;;9.61;59.58;101995.31;5061729;28;46399;-75
2021/11/10 02:35:01;;;;;;;;;47.25;37.75;;;;;9.57;59.51;101982.94;5061642;28;45354;-75
2021/11/10 02:37:27;;;;;;;;;48.00;41.50;;;;;9.57;59.76;101980.28;5061919;28;45401;-75
2021/11/10 02:39:53;;;;;;;;;50.75;40.75;;;;;9.56;59.50;101965.16;5059917;28;45436;-74
2021/11/10 02:42:20;;;;;;;;;51.50;41.50;;;;;9.58;59.41;101966.03;5060928;28;46328;-75
2021/11/10 02:44:53;;;;;;;;;52.00;43.50;;;;;9.53;59.22;101966.97;5061580;28;45384;-75
2021/11/10 02:47:21;;;;;;;;;54.00;43.50;;;;;9.55;59.72;101981.16;5061596;28;45310;-75
2021/11/10 02:49:46;;;;;;;;;56.25;45.75;;;;;9.54;59.75;101980.28;5061523;28;45335;-75
2021/11/10 02:52:15;;;;;;;;;53.25;43.25;;;;;9.56;59.46;101974.94;5061237;28;45364;-74
2021/11/10 02:54:49;;;;;;;;;51.00;43.25;;;;;9.53;59.66;101978.50;5060222;28;45337;-74
2021/11/10 02:57:15;;;;;;;;;49.50;43.50;;;;;9.53;59.44;101972.31;5061484;28;45347;-75
2021/11/10 02:59:40;;;;;;;;;57.50;45.00;;;;;9.53;59.38;101980.31;5061863;28;45263;-75
2021/11/10 03:02:06;;;;;;;;;48.50;40.00;;;;;9.53;59.49;101977.63;5060869;28;45456;-74
2021/11/10 03:04:35;;;;;;;;;50.25;42.00;;;;;9.53;59.59;101974.97;5061529;28;45341;-75
2021/11/10 03:07:02;;;;;;;;;48.25;41.50;;;;;9.53;59.41;101973.19;5060767;28;45276;-74
2021/11/10 03:09:29;;;;;;;;;56.00;44.75;;;;;9.49;59.41;101965.22;5060775;28;45232;-75
2021/11/10 03:11:59;;;;;;;;;51.50;42.75;;;;;9.43;59.48;101961.69;5058624;28;45566;-75
2021/11/10 03:14:26;;;;;;;;;55.25;45.00;;;;;9.48;59.27;101961.66;5061165;28;45340;-75
2021/11/10 03:16:53;;;;;;;;;56.75;44.50;;;;;9.48;59.44;101966.13;5061090;28;45330;-75
2021/11/10 03:19:19;;;;;;;;;58.00;47.25;;;;;9.45;59.71;101959.03;5061301;28;45551;-74
2021/11/10 03:21:46;;;;;;;;;53.50;44.75;;;;;9.48;59.70;101975.00;5060833;28;45344;-75
2021/11/10 03:24:11;;;;;;;;;55.75;45.00;;;;;9.49;59.72;101979.44;5061285;28;45501;-74
2021/11/10 03:26:36;;;;;;;;;57.00;47.50;;;;;9.47;59.67;101973.22;5061012;28;45681;-75
2021/11/10 03:29:03;;;;;;;;;67.00;54.00;;;;;9.50;59.59;101975.88;5056244;28;45366;-75
2021/11/10 03:31:34;;;;;;;;;64.25;53.25;;;;;9.52;59.91;101983.84;5056839;28;46247;-74
2021/11/10 03:34:01;;;;;;;;;69.50;55.00;;;;;9.52;59.59;101982.09;5060716;28;45381;-75
2021/11/10 03:36:27;;;;;;;;;69.50;56.00;;;;;9.51;59.88;101977.66;5052020;28;45413;-75
2021/11/10 03:38:53;;;;;;;;;71.25;55.50;;;;;9.57;59.91;101992.69;5057904;28;45445;-74
2021/11/10 03:41:19;;;;;;;;;70.25;56.00;;;;;9.59;59.74;101993.59;5060510;28;45296;-75
2021/11/10 03:43:45;;;;;;;;;72.00;58.00;;;;;9.57;59.69;101988.25;5059299;28;45925;-75
2021/11/10 03:46:11;;;;;;;;;71.00;53.75;;;;;9.63;59.80;101976.66;5060666;28;45286;-75
2021/11/10 03:48:36;;;;;;;;;70.75;55.00;;;;;9.66;59.36;101981.97;5060612;28;45463;-75
2021/11/10 03:51:02;;;;;;;;;72.75;56.25;;;;;9.63;59.68;101968.66;5045333;28;47492;-74
2021/11/10 03:53:27;;;;;;;;;69.50;53.25;;;;;9.66;59.73;101978.44;5060806;28;45311;-75
2021/11/10 03:55:53;;;;;;;;;60.00;49.75;;;;;9.69;59.84;101989.03;5060661;28;45552;-75
2021/11/10 03:58:19;;;;;;;;;64.00;50.25;;;;;9.67;59.52;101990.84;5060626;28;45472;-75
2021/11/10 04:00:44;;;;;;;;;59.25;49.50;;;;;9.64;59.43;101986.44;5059989;28;46479;-75
2021/11/10 04:03:10;;;;;;;;;66.75;53.50;;;;;9.65;59.65;101996.19;5060268;28;45404;-75
2021/11/10 04:05:35;;;;;;;;;60.25;47.75;;;;;9.68;59.83;102013.94;5060443;28;45354;-75
2021/11/10 04:08:01;;;;;;;;;64.50;49.50;;;;;9.62;59.64;102006.88;5060155;28;45371;-75
2021/11/10 04:10:26;;;;;;;;;62.75;49.50;;;;;9.66;59.77;102029.06;5057194;28;45988;-75
2021/11/10 04:12:52;;;;;;;;;60.75;48.00;;;;;9.67;59.76;102062.81;5059069;28;45373;-76
2021/11/10 04:15:17;;;;;;;;;23.50;22.25;;;;;9.69;59.52;102066.34;5060444;28;45324;-75
2021/11/10 04:17:42;;;;;;;;;57.50;46.25;;;;;9.69;59.64;102045.03;5060109;28;45295;-75
2021/11/10 04:20:09;;;;;;;;;53.00;45.00;;;;;9.68;59.28;102049.47;5059876;28;45271;-75
2021/11/10 04:22:35;;;;;;;;;50.25;41.25;;;;;9.65;59.03;102044.16;5059927;28;45423;-75
2021/11/10 04:25:00;;;;;;;;;46.75;39.75;;;;;9.60;58.91;102038.88;5060127;28;45335;-75
2021/11/10 04:27:26;;;;;;;;;45.00;38.75;;;;;9.54;58.89;102028.28;5060073;28;45291;-75
2021/11/10 04:29:51;;;;;;;;;41.00;38.00;;;;;9.53;59.05;102022.94;5060053;28;45303;-80
2021/11/10 04:32:18;;;;;;;;;42.50;35.00;;;;;9.50;59.13;102025.63;5057563;28;45408;-77
2021/11/10 04:34:44;;;;;;;;;38.50;34.00;;;;;9.37;58.97;102020.41;5059486;28;45926;-76
2021/11/10 04:37:14;;;;;;;;;40.00;35.75;;;;;9.41;59.02;102022.13;5059372;28;45317;-76
2021/11/10 04:39:41;;;;;;;;;26.50;22.00;;;;;9.41;58.95;102016.81;5058133;28;45208;-76
2021/11/10 04:42:08;;;;;;;;;41.75;34.50;;;;;9.35;59.10;102006.19;5059581;28;45409;-75
2021/11/10 04:44:34;;;;;;;;;34.00;31.25;;;;;9.27;58.97;102024.00;5059642;28;45484;-76
2021/11/10 04:46:59;;;;;;;;;37.75;33.25;;;;;9.24;59.05;102032.03;5059415;28;45474;-75
2021/11/10 04:49:27;;;;;;;;;30.75;30.75;;;;;9.24;58.98;102030.25;5059568;28;45486;-76
2021/11/10 04:51:52;;;;;;;;;39.00;35.25;;;;;9.21;58.88;102040.91;5059510;28;45541;-75
2021/11/10 04:54:19;;;;;;;;;39.25;35.25;;;;;9.19;58.60;102034.72;5059977;28;45403;-75
2021/11/10 04:56:46;;;;;;;;;36.75;34.25;;;;;9.19;58.63;102031.19;5059834;28;45506;-75
2021/11/10 04:59:11;;;;;;;;;33.75;33.25;;;;;9.13;58.78;102026.75;5059448;28;45320;-75
2021/11/10 05:01:43;;;;;;;;;38.50;35.25;;;;;9.13;58.64;102009.91;5059222;28;45417;-75
2021/11/10 05:04:09;;;;;;;;;35.50;34.00;;;;;9.05;58.83;101993.94;5046542;28;45322;-75
2021/11/10 05:06:35;;;;;;;;;40.75;35.25;;;;;9.06;58.60;102004.59;5059308;28;45240;-76
2021/11/10 05:09:00;;;;;;;;;35.75;33.75;;;;;9.03;58.95;101996.63;5059541;28;45710;-75
2021/11/10 05:11:26;;;;;;;;;39.25;34.50;;;;;8.99;58.26;101994.88;5057500;28;45320;-75
2021/11/10 05:13:52;;;;;;;;;37.75;34.50;;;;;8.95;59.05;101989.56;5059290;28;45323;-76
2021/11/10 05:16:18;;;;;;;;;40.75;37.00;;;;;8.93;59.05;101988.69;5059373;28;45409;-75
2021/11/10 05:18:44;;;;;;;;;42.00;37.75;;;;;8.89;58.82;101978.06;5059331;28;45490;-75
2021/11/10 05:21:09;;;;;;;;;37.75;35.75;;;;;8.90;59.09;101973.63;5058831;28;45267;-75
2021/11/10 05:23:35;;;;;;;;;43.25;35.50;;;;;8.87;59.20;101968.31;5059530;28;45732;-75
2021/11/10 05:26:01;;;;;;;;;46.00;37.00;;;;;8.85;59.03;101978.09;5059405;28;45353;-75
2021/11/10 05:28:26;;;;;;;;;37.25;33.00;;;;;8.85;59.39;101973.66;5054323;28;48044;-75
2021/11/10 05:30:51;;;;;;;;;31.00;31.00;;;;;8.82;59.32;101960.38;5050919;28;45333;-75
2021/11/10 05:33:17;;;;;;;;;40.75;36.75;;;;;8.82;59.21;101957.69;5062861;28;45356;-76
2021/11/10 05:35:42;;;;;;;;;37.50;35.25;;;;;8.84;59.59;101958.56;5062751;28;45357;-76
2021/11/10 05:38:08;;;;;;;;;38.00;36.25;;;;;8.80;59.47;101955.94;5062183;28;46089;-75
2021/11/10 05:40:36;;;;;;;;;35.75;33.75;;;;;8.80;59.28;101963.91;5062646;28;45247;-75
2021/11/10 05:43:01;;;;;;;;;39.75;35.25;;;;;8.74;59.87;101947.97;5062661;28;45437;-76
2021/11/10 05:45:26;;;;;;;;;41.25;37.25;;;;;8.75;59.52;101955.94;5062930;28;45276;-75
2021/11/10 05:47:52;;;;;;;;;46.25;37.50;;;;;8.77;59.60;101962.16;5062388;28;46192;-75
2021/11/10 05:50:17;;;;;;;;;50.50;41.00;;;;;8.74;59.85;101953.28;5062386;28;45301;-76
2021/11/10 05:52:44;;;;;;;;;41.00;35.25;;;;;8.73;59.59;101936.44;5062292;28;45258;-75
2021/11/10 05:55:10;;;;;;;;;42.75;36.75;;;;;8.76;59.78;101943.53;5062377;28;45808;-75
2021/11/10 05:57:38;;;;;;;;;44.50;36.50;;;;;8.74;59.99;101956.84;5062181;28;47240;-75
2021/11/10 06:00:07;;;;;;;;;42.00;37.00;;;;;8.74;59.81;101967.50;5062411;28;45265;-75
2021/11/10 06:02:33;;;;;;;;;39.75;36.00;;;;;8.74;60.04;101971.91;5062091;28;45318;-75
2021/11/10 06:04:58;;;;;;;;;43.50;36.50;;;;;8.74;60.00;101974.59;5062487;28;45408;-76
2021/11/10 06:07:23;;;;;;;;;39.75;37.75;;;;;8.71;60.02;101967.50;5061920;28;47015;-76
2021/11/10 06:09:49;;;;;;;;;51.75;41.25;;;;;8.70;60.04;101973.72;5062156;28;45386;-75
2021/11/10 06:12:14;;;;;;;;;49.75;39.50;;;;;8.75;59.71;101995.00;5060584;28;45405;-75
2021/11/10 06:14:39;;;;;;;;;47.75;41.25;;;;;8.76;59.77;102005.66;5062193;28;45291;-75
2021/11/10 06:17:05;;;;;;;;;51.50;39.00;;;;;8.74;59.74;102011.84;5061756;28;45294;-75
2021/11/10 06:19:30;;;;;;;;;50.50;42.00;;;;;8.75;59.69;102022.50;5062003;28;45401;-75
2021/11/10 06:21:56;;;;;;;;;53.00;43.00;;;;;8.70;59.68;102016.31;5061870;28;45373;-75
2021/11/10 06:24:22;;;;;;;;;44.75;39.00;;;;;8.69;59.79;102018.09;5062002;28;45315;-75
2021/11/10 06:26:49;;;;;;;;;46.75;37.75;;;;;8.67;59.95;102011.91;5061343;28;45980;-75
2021/11/10 06:29:15;;;;;;;;;51.50;41.50;;;;;8.74;60.06;102027.84;5061840;28;45286;-75
2021/11/10 06:31:40;;;;;;;;;47.50;39.25;;;;;8.70;59.98;102032.28;5061521;28;45383;-75
2021/11/10 06:34:05;;;;;;;;;50.25;39.25;;;;;8.69;59.79;102041.19;5062228;28;45335;-75
2021/11/10 06:36:31;;;;;;;;;49.25;38.75;;;;;8.63;59.77;102034.09;5061506;28;45461;-75
2021/11/10 06:38:57;;;;;;;;;47.50;40.50;;;;;8.65;59.87;102044.72;5059492;28;45267;-76
2021/11/10 06:41:22;;;;;;;;;49.75;41.50;;;;;8.67;60.02;102056.25;5061352;28;45536;-76
2021/11/10 06:43:49;;;;;;;;;43.75;40.00;;;;;8.67;59.88;102051.84;5060240;28;45479;-76
2021/11/10 06:46:15;;;;;;;;;46.50;38.50;;;;;8.68;60.17;102060.69;5061146;28;46270;-76
2021/11/10 06:48:41;;;;;;;;;47.75;41.75;;;;;8.66;60.13;102081.13;5061553;28;45366;-76
2021/11/10 06:51:06;;;;;;;;;49.00;43.00;;;;;8.68;60.37;102090.84;5061208;28;45417;-76
2021/11/10 06:53:32;;;;;;;;;45.25;39.25;;;;;8.68;60.43;102098.84;5061562;28;45392;-76
2021/11/10 06:55:57;;;;;;;;;46.50;42.25;;;;;8.66;60.39;102103.28;5061630;28;46067;-77
2021/11/10 06:58:23;;;;;;;;;47.75;40.75;;;;;8.66;60.59;102102.41;5061568;28;45373;-76
2021/11/10 07:00:48;;;;;;;;;49.75;41.25;;;;;8.62;60.41;102106.88;5052182;28;45384;-76
2021/11/10 07:03:13;;;;;;;;;54.00;41.25;;;;;8.58;60.39;102106.88;5061504;28;45421;-76
2021/11/10 07:05:40;;;;;;;;;53.50;40.50;;;;;8.62;60.18;102108.63;5061040;28;45252;-76
2021/11/10 07:08:05;;;;;;;;;52.25;43.00;;;;;8.64;60.31;102105.06;5061256;28;45709;-76
2021/11/10 07:10:31;;;;;;;;;59.00;44.00;;;;;8.62;60.05;102098.88;5057165;28;45310;-76
2021/11/10 07:12:56;;;;;;;;;43.75;38.25;;;;;8.62;60.44;102097.97;5051234;28;45556;-75
2021/11/10 07:15:24;;;;;;;;;51.25;42.00;;;;;8.61;60.52;102082.91;5061022;28;45316;-72
2021/11/10 07:17:53;;;;;;;;;48.25;41.00;;;;;8.63;60.25;102089.97;5058482;28;45529;-71
2021/11/10 07:20:20;;;;;;;;;52.75;41.75;;;;;8.64;60.27;102085.56;5059045;28;46645;-71
2021/11/10 07:22:45;;;;;;;;;53.00;43.25;;;;;8.60;60.53;102076.69;5061029;28;45324;-72
2021/11/10 07:25:11;;;;;;;;;57.25;42.75;;;;;8.64;60.47;102077.59;5058761;28;47076;-74
2021/11/10 07:27:37;;;;;;;;;53.50;42.75;;;;;8.66;60.35;102089.09;5060697;28;45370;-73
2021/11/10 07:30:08;;;;;;;;;54.50;44.25;;;;;8.61;60.47;102082.91;5060970;28;45220;-73
2021/11/10 07:32:35;;;;;;;;;56.00;46.50;;;;;8.58;60.48;102088.25;5060884;28;45275;-72
2021/11/10 07:35:02;;;;;;;;;52.00;45.25;;;;;8.61;60.36;102085.56;5060487;28;45373;-73
2021/11/10 07:37:27;;;;;;;;;58.00;45.50;;;;;8.58;60.38;102080.25;5060003;28;45322;-73
2021/11/10 07:39:53;;;;;;;;;51.25;43.00;;;;;8.53;60.49;102067.81;5059801;28;45912;-73
2021/11/10 07:42:18;;;;;;;;;56.75;46.25;;;;;8.55;60.12;102069.59;5060735;28;45346;-73
2021/11/10 07:44:44;;;;;;;;;57.50;46.75;;;;;8.56;60.50;102071.41;5060426;28;46171;-72
2021/11/10 07:47:29;;;;;;;;;56.50;45.25;;;;;8.55;60.23;102056.31;5060433;28;45444;-74
2021/11/10 07:49:54;;;;;;;;;51.75;43.50;;;;;8.56;60.33;102061.63;5059291;28;45554;-72
2021/11/10 07:52:20;;;;;;;;;60.00;46.50;;;;;8.56;60.49;102060.75;5060789;28;45294;-73
2021/11/10 07:54:45;;;;;;;;;56.00;44.00;;;;;8.55;60.51;102066.94;5046284;28;45307;-73
2021/11/10 07:57:11;;;;;;;;;56.75;45.00;;;;;8.50;60.34;102061.63;5062056;28;45555;-78
2021/11/10 07:59:36;;;;;;;;;60.75;48.50;;;;;8.51;60.66;102058.97;5059964;28;45394;-79
2021/11/10 08:02:01;;;;;;;;;58.75;47.50;;;;;8.53;60.25;102073.16;5058065;28;45461;-77
2021/11/10 08:04:27;;;;;;;;;58.75;48.00;;;;;8.48;60.34;102058.97;5059258;28;46162;-83
2021/11/10 08:06:52;;;;;;;;;64.75;49.50;;;;;8.52;60.29;102074.06;5061307;28;45481;-82
2021/11/10 08:09:17;;;;;;;;;58.25;48.25;;;;;8.49;60.34;102082.03;5059651;28;45590;-82
2021/11/10 08:11:43;;;;;;;;;58.50;47.00;;;;;8.46;60.51;102081.16;5055968;28;45294;-82
2021/11/10 08:14:08;;;;;;;;;61.00;50.50;;;;;8.48;60.47;102090.03;5042862;28;46017;-83
2021/11/10 08:16:34;;;;;;;;;57.00;46.75;;;;;8.43;60.26;102084.72;5060783;28;45242;-83
2021/11/10 08:19:00;;;;;;;;;59.00;49.25;;;;;8.40;60.78;102084.69;5057675;28;45358;-82
2021/11/10 08:21:26;;;;;;;;;60.25;48.00;;;;;8.44;60.83;102083.84;5058090;28;45708;-82
2021/11/10 08:23:51;;;;;;;;;60.25;50.00;;;;;8.40;60.30;102081.13;5059293;28;47030;-81
2021/11/10 08:26:17;;;;;;;;;62.25;49.00;;;;;8.38;60.78;102070.50;5057347;28;45455;-82
2021/11/10 08:28:43;;;;;;;;;64.50;50.75;;;;;8.43;60.57;102087.38;5059094;28;45511;-81
2021/11/10 08:31:08;;;;;;;;;62.00;50.25;;;;;8.45;60.86;102087.38;5059332;28;45791;-81
2021/11/10 08:33:34;;;;;;;;;61.00;49.00;;;;;8.43;60.98;102092.69;5059463;28;45465;-81
2021/11/10 08:36:00;;;;;;;;;60.00;47.75;;;;;8.45;61.02;102082.97;5059534;28;45510;-81
2021/11/10 08:38:29;;;;;;;;;56.00;47.00;;;;;8.47;60.95;102074.94;5057327;28;45473;-82
2021/11/10 08:40:56;;;;;;;;;61.75;47.75;;;;;8.53;61.23;102089.13;5059421;28;45401;-77
2021/11/10 08:43:22;;;;;;;;;62.25;50.00;;;;;8.50;61.34;102082.91;5059416;28;47218;-82
2021/11/10 08:45:51;;;;;;;;;62.00;49.50;;;;;8.59;61.17;102106.88;5059314;28;45949;-82
2021/11/10 08:48:17;;;;;;;;;64.25;52.75;;;;;8.61;61.42;102101.53;5058692;28;45354;-74
2021/11/10 08:50:45;;;;;;;;;59.25;48.25;;;;;8.56;61.51;102096.22;5058970;28;45394;-81
2021/11/10 08:53:14;;;;;;;;;63.50;50.50;;;;;8.57;61.30;102094.44;5059225;28;45251;-82
2021/11/10 08:55:39;;;;;;;;;64.50;51.50;;;;;8.59;61.50;102090.91;5045590;28;45370;-73
2021/11/10 08:58:05;;;;;;;;;63.25;52.25;;;;;8.65;61.80;102090.88;5058265;28;45423;-78
2021/11/10 09:00:33;;;;;;;;;60.75;51.00;;;;;8.68;61.96;102090.84;5047057;28;45375;-67
2021/11/10 09:02:58;;;;;;;;;66.25;54.00;;;;;8.70;61.70;102099.75;5058668;28;45319;-68
2021/11/10 09:05:24;;;;;;;;;61.75;51.25;;;;;8.72;61.58;102105.06;5052475;28;45296;-68
2021/11/10 09:07:50;;;;;;;;;64.00;51.25;;;;;8.73;61.75;102098.84;5058277;28;45508;-68
2021/11/10 09:10:17;;;;;;;;;68.75;55.00;;;;;8.77;62.00;102094.38;5057818;28;45297;-68
2021/11/10 09:12:48;;;;;;;;;70.25;55.50;;;;;8.78;61.91;102093.50;5056963;28;46614;-67
2021/11/10 09:15:15;;;;;;;;;69.00;54.50;;;;;8.85;61.82;102101.47;5056521;28;45370;-67
2021/11/10 09:17:41;;;;;;;;;66.75;51.75;;;;;8.88;61.82;102090.78;5058101;28;45504;-67
2021/11/10 09:20:14;;;;;;;;;66.50;55.75;;;;;8.94;62.00;102083.66;5058123;28;45550;-67
2021/11/10 09:22:40;;;;;;;;;70.25;56.25;;;;;8.97;61.69;102073.00;5058041;28;46286;-67
2021/11/10 09:25:08;;;;;;;;;77.00;60.25;;;;;8.96;61.60;102066.81;5058522;28;45355;-67
2021/11/10 09:27:35;;;;;;;;;64.00;52.50;;;;;8.92;61.36;102065.06;5061315;28;45494;-67
2021/11/10 09:30:03;;;;;;;;;72.00;57.00;;;;;8.97;61.29;102070.34;5057227;28;45614;-67
2021/11/10 09:32:28;;;;;;;;;73.25;58.00;;;;;9.04;61.44;102074.78;5056948;28;46114;-67
2021/11/10 09:34:53;;;;;;;;;68.50;55.50;;;;;9.06;61.40;102063.19;5057532;28;45482;-68
2021/11/10 09:37:20;;;;;;;;;71.50;58.00;;;;;9.15;61.38;102078.25;5057824;28;45454;-70
2021/11/10 09:39:45;;;;;;;;;68.00;54.75;;;;;9.17;60.78;102080.91;5057669;28;45248;-70
2021/11/10 09:42:11;;;;;;;;;74.00;58.50;;;;;9.16;61.08;102085.34;5053182;28;48356;-69
2021/11/10 09:44:39;;;;;;;;;76.00;57.25;;;;;9.23;61.08;102087.09;5055979;27;45513;-70
2021/11/10 09:47:05;;;;;;;;;72.00;58.00;;;;;9.27;60.97;102087.94;5057697;28;45388;-67
2021/11/10 09:49:31;;;;;;;;;74.00;58.00;;;;;9.30;60.91;102082.59;5056807;28;45485;-67
2021/11/10 09:51:56;;;;;;;;;75.50;60.00;;;;;9.34;60.77;102096.78;5057546;28;45488;-66
2021/11/10 09:54:22;;;;;;;;;70.25;57.00;;;;;9.39;60.65;102111.00;5058030;28;45466;-68
2021/11/10 09:56:47;;;;;;;;;75.00;60.25;;;;;9.34;61.06;102099.44;5066134;28;45394;-67
2021/11/10 09:59:15;;;;;;;;;73.75;60.00;;;;;9.44;60.56;102117.19;5055622;28;46664;-68
2021/11/10 10:01:41;;;;;;;;;70.00;56.25;;;;;9.52;60.37;102123.38;5057522;28;45978;-71
2021/11/10 10:04:09;;;;;;;;;78.50;62.00;;;;;9.51;60.15;102118.03;5054636;28;45723;-67
2021/11/10 10:06:35;;;;;;;;;74.75;59.25;;;;;9.56;60.49;102129.56;5056355;28;45554;-67
2021/11/10 10:09:02;;;;;;;;;70.50;55.50;;;;;9.57;60.37;102124.22;5051498;28;45620;-67
2021/11/10 10:11:28;;;;;;;;;77.75;61.00;;;;;9.63;60.19;102142.81;5057175;28;45406;-67
2021/11/10 10:13:53;;;;;;;;;82.25;63.25;;;;;9.68;60.49;102147.25;5058116;28;45343;-67
2021/11/10 10:16:24;;;;;;;;;80.75;62.50;;;;;9.69;59.85;102147.25;5058002;28;45554;-67
2021/11/10 10:18:50;;;;;;;;;75.75;59.50;;;;;9.69;59.86;102149.91;5061522;28;45397;-67
2021/11/10 10:21:18;;;;;;;;;77.00;62.00;;;;;9.73;60.41;102132.13;5061566;28;45427;-67
2021/11/10 10:23:50;;;;;;;;;81.00;64.50;;;;;9.80;60.24;102136.50;5061911;28;45473;-67
2021/11/10 10:26:25;;;;;;;;;79.75;62.25;;;;;9.85;60.44;102131.16;5053333;28;45412;-66
2021/11/10 10:28:57;;;;;;;;;73.50;60.75;;;;;9.89;60.55;102130.22;5061035;28;45622;-66
2021/11/10 10:31:26;;;;;;;;;80.75;61.00;;;;;9.95;59.77;102099.03;5061433;28;45419;-67
2021/11/10 10:33:55;;;;;;;;;83.25;66.75;;;;;9.91;59.94;102096.44;5060170;28;45437;-66
2021/11/10 10:36:23;;;;;;;;;79.00;64.00;;;;;9.94;60.37;102101.72;5059861;28;45265;-67
2021/11/10 10:38:51;;;;;;;;;77.25;60.75;;;;;9.97;60.02;102093.69;5060857;28;45415;-66
2021/11/10 10:41:21;;;;;;;;;66.50;53.50;;;;;9.97;59.70;102099.94;5060659;28;46338;-66
2021/11/10 10:43:52;;;;;;;;;82.50;66.50;;;;;9.98;59.81;102093.69;5059441;28;45369;-67
2021/11/10 10:46:24;;;;;;;;;83.00;64.75;;;;;10.02;60.34;102086.53;5061392;28;45429;-67
2021/11/10 10:48:50;;;;;;;;;79.50;62.00;;;;;10.05;59.88;102085.63;5056126;28;45453;-67
2021/11/10 10:51:17;;;;;;;;;76.75;60.00;;;;;10.07;59.98;102075.84;5060912;28;45608;-67
2021/11/10 10:53:44;;;;;;;;;80.75;66.00;;;;;10.02;59.74;102067.88;5073300;28;45884;-67
2021/11/10 10:56:13;;;;;;;;;83.50;68.50;;;;;10.04;59.39;102070.53;5059985;28;45417;-66
2021/11/10 10:58:40;;;;;;;;;81.25;64.25;;;;;10.05;59.48;102070.50;5058730;28;45517;-66
2021/11/10 11:01:34;;;;;;;;;85.25;69.50;;;;;10.09;59.49;102068.69;5053903;28;45494;-66
2021/11/10 11:04:04;;;;;;;;;80.75;62.75;;;;;10.11;60.02;102061.59;5058788;28;45335;-66
2021/11/10 11:06:40;;;;;;;;;81.50;67.00;;;;;10.08;59.51;102049.13;5061372;28;45255;-69
2021/11/10 11:09:21;;;;;;;;;78.50;63.00;;;;;10.10;59.74;102047.34;5060245;28;45247;-67
2021/11/10 11:11:59;;;;;;;;;83.75;66.75;;;;;10.08;59.97;102049.13;5071367;28;47254;-66
2021/11/10 11:17:09;;;;;;;;;81.50;65.25;;;;;10.16;59.28;102049.94;5060629;28;45496;-66